Terminal Aerodrome Forecast
Issued by NWS

Home | Current Version | Previous Version | Text Only | Print | Product List | Glossary On
Versions: 1 2 3 4 5 6 7 8 9 10 11 12 13 14 15 16 17 18 19 20 21 22 23 24 25 26
072
FTUS46 KLOX 181741
TAFOXR
TAF
KOXR 181741Z 1818/1918 07006KT P6SM BKN020 BKN120
     FM182100 13007KT P6SM VCSH SCT020 BKN120
     FM190200 12010KT P6SM -SHRA OVC015
     FM190500 09015G25KT 4SM +RA BKN010 OVC015
     FM190900 11015G25KT 2SM RA BR OVC007
     FM191400 21014G25KT 3SM TSRA BR BKN005 OVC010CB=

USA.gov is the U.S. government's official web portal to all federal, state and local government web resources and services.